Richmond's Hourly Summary for Thursday, March 16, 2017
Hour Temp
(f)
RH
(%)
Solar Rad.
(MJ/m2)
Rainfall
(in)
Wind
(mph)
3/16/2017 12:00 AM 55 89 0 0 6.3
3/16/2017 1:00 AM 55 91 0 0 5.01
3/16/2017 2:00 AM 56 90 0 0 5.08
3/16/2017 3:00 AM 58 90 0 0 6.22
3/16/2017 4:00 AM 58 91 0 0 3.59
3/16/2017 5:00 AM 58 92 0 0 1.86
3/16/2017 6:00 AM 59 90 0 0 6.51
3/16/2017 7:00 AM 60 90 0 0 6.72
3/16/2017 8:00 AM 62 91 0.01 0 9.15
3/16/2017 9:00 AM 64 87 0.22 0 10.58
3/16/2017 10:00 AM 66 82 0.77 0 11.66
3/16/2017 11:00 AM 69 70 1.54 0 10.08
3/16/2017 12:00 PM 74 57 2.4 0 11.94
3/16/2017 1:00 PM 76 55 2.38 0 11.71
3/16/2017 2:00 PM 76 55 1.55 0 10.86
3/16/2017 3:00 PM 77 53 2.04 0 13.41
3/16/2017 4:00 PM 76 55 1.21 0 13.96
3/16/2017 5:00 PM 76 54 0.99 0 15.08
3/16/2017 6:00 PM 74 61 0.59 0 13.55
3/16/2017 7:00 PM 73 66 0.32 0 12.61
3/16/2017 8:00 PM 71 70 0.05 0 10.1
3/16/2017 9:00 PM 69 77 0 0 8.8
3/16/2017 10:00 PM 68 83 0 0 7.24
3/16/2017 11:00 PM 67 87 0 0 8.73
Data Summary 66 76 14.07 0.00 9.20